<?xml version="1.0" encoding="UTF-8" standalone="no" ?>
<gpx xmlns="http://www.topografix.com/GPX/1/1" xmlns:xsi="http://www.w3.org/2001/XMLSchema-instance" xsi:schemaLocation="http://www.topografix.com/GPX/1/1 http://www.topografix.com/GPX/1/1/gpx.xsd" version="1.1" creator="VisuGPX - https://www.visugpx.com">
  <metadata>
    <name>Base VRTT Gevaudan Lagogne</name>
  </metadata>
  <trk>
    <name><![CDATA[OR-7914171--Naussac:Site VTT Langogne - Parcours 8 et 9]]></name>
    <extensions>
      <line xmlns="http://www.topografix.com/GPX/gpx_style/0/2">
        <color>00FFFF</color>
        <width>4</width>
      </line>
    </extensions>
    <trkseg>
      <trkpt lat="44.73466" lon="3.83518">
        <ele>948</ele>
        <time>2017-12-19T10:38:26Z</time>
      </trkpt>
      <trkpt lat="44.73545" lon="3.83479">
        <ele>948</ele>
        <time>2017-12-19T10:40:26Z</time>
      </trkpt>
      <trkpt lat="44.73618" lon="3.83483">
        <ele>951</ele>
        <time>2017-12-19T10:42:26Z</time>
      </trkpt>
      <trkpt lat="44.73673" lon="3.83518">
        <ele>957</ele>
        <time>2017-12-19T10:44:26Z</time>
      </trkpt>
      <trkpt lat="44.73731" lon="3.83488">
        <ele>958</ele>
        <time>2017-12-19T10:46:26Z</time>
      </trkpt>
      <trkpt lat="44.73817" lon="3.83488">
        <ele>958</ele>
        <time>2017-12-19T10:48:26Z</time>
      </trkpt>
      <trkpt lat="44.73868" lon="3.83406">
        <ele>949</ele>
        <time>2017-12-19T10:50:26Z</time>
      </trkpt>
      <trkpt lat="44.73923" lon="3.83329">
        <ele>947</ele>
        <time>2017-12-19T10:52:26Z</time>
      </trkpt>
      <trkpt lat="44.73963" lon="3.83303">
        <ele>945</ele>
        <time>2017-12-19T10:54:26Z</time>
      </trkpt>
      <trkpt lat="44.73969" lon="3.83419">
        <ele>944</ele>
        <time>2017-12-19T10:56:26Z</time>
      </trkpt>
      <trkpt lat="44.74036" lon="3.83479">
        <ele>937</ele>
        <time>2017-12-19T10:58:26Z</time>
      </trkpt>
      <trkpt lat="44.74063" lon="3.83565">
        <ele>933</ele>
        <time>2017-12-19T11:00:26Z</time>
      </trkpt>
      <trkpt lat="44.74051" lon="3.83676">
        <ele>930</ele>
        <time>2017-12-19T11:02:26Z</time>
      </trkpt>
      <trkpt lat="44.74024" lon="3.83771">
        <ele>930</ele>
        <time>2017-12-19T11:04:26Z</time>
      </trkpt>
      <trkpt lat="44.7399" lon="3.83844">
        <ele>930</ele>
        <time>2017-12-19T11:06:26Z</time>
      </trkpt>
      <trkpt lat="44.73942" lon="3.83908">
        <ele>931</ele>
        <time>2017-12-19T11:08:26Z</time>
      </trkpt>
      <trkpt lat="44.73908" lon="3.8399">
        <ele>928</ele>
        <time>2017-12-19T11:10:26Z</time>
      </trkpt>
      <trkpt lat="44.73908" lon="3.8408">
        <ele>926</ele>
        <time>2017-12-19T11:12:26Z</time>
      </trkpt>
      <trkpt lat="44.73884" lon="3.84174">
        <ele>922</ele>
        <time>2017-12-19T11:14:26Z</time>
      </trkpt>
      <trkpt lat="44.73847" lon="3.84217">
        <ele>925</ele>
        <time>2017-12-19T11:16:26Z</time>
      </trkpt>
      <trkpt lat="44.73862" lon="3.8429">
        <ele>920</ele>
        <time>2017-12-19T11:18:26Z</time>
      </trkpt>
      <trkpt lat="44.73826" lon="3.84376">
        <ele>922</ele>
        <time>2017-12-19T11:20:26Z</time>
      </trkpt>
      <trkpt lat="44.73801" lon="3.84449">
        <ele>921</ele>
        <time>2017-12-19T11:22:26Z</time>
      </trkpt>
      <trkpt lat="44.7378" lon="3.84522">
        <ele>919</ele>
        <time>2017-12-19T11:24:26Z</time>
      </trkpt>
      <trkpt lat="44.73731" lon="3.84565">
        <ele>920</ele>
        <time>2017-12-19T11:26:26Z</time>
      </trkpt>
      <trkpt lat="44.73673" lon="3.8459">
        <ele>921</ele>
        <time>2017-12-19T11:28:26Z</time>
      </trkpt>
      <trkpt lat="44.73673" lon="3.84672">
        <ele>917</ele>
        <time>2017-12-19T11:30:26Z</time>
      </trkpt>
      <trkpt lat="44.73701" lon="3.84736">
        <ele>916</ele>
        <time>2017-12-19T11:32:26Z</time>
      </trkpt>
      <trkpt lat="44.73707" lon="3.84814">
        <ele>914</ele>
        <time>2017-12-19T11:34:26Z</time>
      </trkpt>
      <trkpt lat="44.73682" lon="3.84874">
        <ele>913</ele>
        <time>2017-12-19T11:36:26Z</time>
      </trkpt>
      <trkpt lat="44.7367" lon="3.84938">
        <ele>911</ele>
        <time>2017-12-19T11:38:26Z</time>
      </trkpt>
      <trkpt lat="44.73655" lon="3.85028">
        <ele>911</ele>
        <time>2017-12-19T11:40:26Z</time>
      </trkpt>
      <trkpt lat="44.73631" lon="3.85084">
        <ele>913</ele>
        <time>2017-12-19T11:42:26Z</time>
      </trkpt>
      <trkpt lat="44.73591" lon="3.85178">
        <ele>915</ele>
        <time>2017-12-19T11:44:26Z</time>
      </trkpt>
      <trkpt lat="44.73551" lon="3.8526">
        <ele>915</ele>
        <time>2017-12-19T11:46:26Z</time>
      </trkpt>
      <trkpt lat="44.73512" lon="3.85346">
        <ele>911</ele>
        <time>2017-12-19T11:48:26Z</time>
      </trkpt>
      <trkpt lat="44.73454" lon="3.85384">
        <ele>914</ele>
        <time>2017-12-19T11:50:26Z</time>
      </trkpt>
      <trkpt lat="44.73512" lon="3.85479">
        <ele>905</ele>
        <time>2017-12-19T11:52:26Z</time>
      </trkpt>
      <trkpt lat="44.73557" lon="3.85513">
        <ele>902</ele>
        <time>2017-12-19T11:54:26Z</time>
      </trkpt>
      <trkpt lat="44.73448" lon="3.85706">
        <ele>903</ele>
        <time>2017-12-19T11:56:26Z</time>
      </trkpt>
      <trkpt lat="44.735" lon="3.85784">
        <ele>901</ele>
        <time>2017-12-19T11:58:26Z</time>
      </trkpt>
      <trkpt lat="44.73539" lon="3.85826">
        <ele>905</ele>
        <time>2017-12-19T12:00:26Z</time>
      </trkpt>
      <trkpt lat="44.736" lon="3.85826">
        <ele>909</ele>
        <time>2017-12-19T12:02:26Z</time>
      </trkpt>
      <trkpt lat="44.73655" lon="3.85753">
        <ele>905</ele>
        <time>2017-12-19T12:04:26Z</time>
      </trkpt>
      <trkpt lat="44.73701" lon="3.85749">
        <ele>905</ele>
        <time>2017-12-19T12:06:26Z</time>
      </trkpt>
      <trkpt lat="44.73707" lon="3.85638">
        <ele>905</ele>
        <time>2017-12-19T12:08:26Z</time>
      </trkpt>
      <trkpt lat="44.73722" lon="3.8553">
        <ele>907</ele>
        <time>2017-12-19T12:10:26Z</time>
      </trkpt>
      <trkpt lat="44.7374" lon="3.85436">
        <ele>904</ele>
        <time>2017-12-19T12:12:26Z</time>
      </trkpt>
      <trkpt lat="44.73792" lon="3.85367">
        <ele>904</ele>
        <time>2017-12-19T12:14:26Z</time>
      </trkpt>
      <trkpt lat="44.73847" lon="3.85269">
        <ele>903</ele>
        <time>2017-12-19T12:16:26Z</time>
      </trkpt>
      <trkpt lat="44.73914" lon="3.85148">
        <ele>905</ele>
        <time>2017-12-19T12:18:26Z</time>
      </trkpt>
      <trkpt lat="44.73987" lon="3.8502">
        <ele>907</ele>
        <time>2017-12-19T12:20:26Z</time>
      </trkpt>
      <trkpt lat="44.74045" lon="3.84908">
        <ele>907</ele>
        <time>2017-12-19T12:22:26Z</time>
      </trkpt>
      <trkpt lat="44.74106" lon="3.84809">
        <ele>909</ele>
        <time>2017-12-19T12:24:26Z</time>
      </trkpt>
      <trkpt lat="44.74173" lon="3.84698">
        <ele>910</ele>
        <time>2017-12-19T12:26:26Z</time>
      </trkpt>
      <trkpt lat="44.74216" lon="3.84599">
        <ele>910</ele>
        <time>2017-12-19T12:28:26Z</time>
      </trkpt>
      <trkpt lat="44.74259" lon="3.84522">
        <ele>910</ele>
        <time>2017-12-19T12:30:26Z</time>
      </trkpt>
      <trkpt lat="44.74301" lon="3.84445">
        <ele>913</ele>
        <time>2017-12-19T12:32:26Z</time>
      </trkpt>
      <trkpt lat="44.74338" lon="3.84367">
        <ele>912</ele>
        <time>2017-12-19T12:34:26Z</time>
      </trkpt>
      <trkpt lat="44.74371" lon="3.84269">
        <ele>913</ele>
        <time>2017-12-19T12:36:26Z</time>
      </trkpt>
      <trkpt lat="44.74384" lon="3.84183">
        <ele>912</ele>
        <time>2017-12-19T12:38:26Z</time>
      </trkpt>
      <trkpt lat="44.74411" lon="3.84101">
        <ele>914</ele>
        <time>2017-12-19T12:40:26Z</time>
      </trkpt>
      <trkpt lat="44.74445" lon="3.8402">
        <ele>917</ele>
        <time>2017-12-19T12:42:26Z</time>
      </trkpt>
      <trkpt lat="44.74487" lon="3.8396">
        <ele>920</ele>
        <time>2017-12-19T12:44:26Z</time>
      </trkpt>
      <trkpt lat="44.74551" lon="3.83912">
        <ele>921</ele>
        <time>2017-12-19T12:46:26Z</time>
      </trkpt>
      <trkpt lat="44.74612" lon="3.83882">
        <ele>920</ele>
        <time>2017-12-19T12:48:26Z</time>
      </trkpt>
      <trkpt lat="44.74661" lon="3.83882">
        <ele>918</ele>
        <time>2017-12-19T12:50:26Z</time>
      </trkpt>
      <trkpt lat="44.74701" lon="3.83925">
        <ele>925</ele>
        <time>2017-12-19T12:52:26Z</time>
      </trkpt>
      <trkpt lat="44.74746" lon="3.83912">
        <ele>926</ele>
        <time>2017-12-19T12:54:26Z</time>
      </trkpt>
      <trkpt lat="44.74778" lon="3.83925">
        <ele>929</ele>
        <time>2017-12-19T12:56:26Z</time>
      </trkpt>
      <trkpt lat="44.74803" lon="3.83962">
        <ele>934</ele>
        <time>2017-12-19T12:58:26Z</time>
      </trkpt>
      <trkpt lat="44.74826" lon="3.84005">
        <ele>940</ele>
        <time>2017-12-19T13:00:26Z</time>
      </trkpt>
      <trkpt lat="44.74858" lon="3.84037">
        <ele>946</ele>
        <time>2017-12-19T13:02:26Z</time>
      </trkpt>
      <trkpt lat="44.74885" lon="3.8408">
        <ele>952</ele>
        <time>2017-12-19T13:04:26Z</time>
      </trkpt>
      <trkpt lat="44.74922" lon="3.84071">
        <ele>951</ele>
        <time>2017-12-19T13:06:26Z</time>
      </trkpt>
      <trkpt lat="44.74931" lon="3.84131">
        <ele>960</ele>
        <time>2017-12-19T13:08:26Z</time>
      </trkpt>
      <trkpt lat="44.74966" lon="3.84191">
        <ele>968</ele>
        <time>2017-12-19T13:10:26Z</time>
      </trkpt>
      <trkpt lat="44.74989" lon="3.84249">
        <ele>974</ele>
        <time>2017-12-19T13:12:26Z</time>
      </trkpt>
      <trkpt lat="44.75018" lon="3.84314">
        <ele>982</ele>
        <time>2017-12-19T13:14:26Z</time>
      </trkpt>
      <trkpt lat="44.7503" lon="3.84374">
        <ele>987</ele>
        <time>2017-12-19T13:16:26Z</time>
      </trkpt>
      <trkpt lat="44.7505" lon="3.84438">
        <ele>991</ele>
        <time>2017-12-19T13:18:26Z</time>
      </trkpt>
      <trkpt lat="44.75072" lon="3.845">
        <ele>995</ele>
        <time>2017-12-19T13:20:26Z</time>
      </trkpt>
      <trkpt lat="44.75106" lon="3.84556">
        <ele>1000</ele>
        <time>2017-12-19T13:22:26Z</time>
      </trkpt>
      <trkpt lat="44.75135" lon="3.84616">
        <ele>1001</ele>
        <time>2017-12-19T13:24:26Z</time>
      </trkpt>
      <trkpt lat="44.7517" lon="3.84657">
        <ele>1000</ele>
        <time>2017-12-19T13:26:26Z</time>
      </trkpt>
      <trkpt lat="44.7521" lon="3.84702">
        <ele>1004</ele>
        <time>2017-12-19T13:28:26Z</time>
      </trkpt>
      <trkpt lat="44.75187" lon="3.84786">
        <ele>1007</ele>
        <time>2017-12-19T13:30:26Z</time>
      </trkpt>
      <trkpt lat="44.75168" lon="3.84863">
        <ele>1011</ele>
        <time>2017-12-19T13:32:26Z</time>
      </trkpt>
      <trkpt lat="44.75152" lon="3.84919">
        <ele>1014</ele>
        <time>2017-12-19T13:34:26Z</time>
      </trkpt>
      <trkpt lat="44.75146" lon="3.84994">
        <ele>1023</ele>
        <time>2017-12-19T13:36:26Z</time>
      </trkpt>
      <trkpt lat="44.75104" lon="3.85058">
        <ele>1029</ele>
        <time>2017-12-19T13:38:26Z</time>
      </trkpt>
      <trkpt lat="44.75092" lon="3.85118">
        <ele>1030</ele>
        <time>2017-12-19T13:40:26Z</time>
      </trkpt>
      <trkpt lat="44.75045" lon="3.85161">
        <ele>1032</ele>
        <time>2017-12-19T13:42:26Z</time>
      </trkpt>
      <trkpt lat="44.75025" lon="3.85215">
        <ele>1031</ele>
        <time>2017-12-19T13:44:26Z</time>
      </trkpt>
      <trkpt lat="44.75005" lon="3.85307">
        <ele>1028</ele>
        <time>2017-12-19T13:46:26Z</time>
      </trkpt>
      <trkpt lat="44.74987" lon="3.85406">
        <ele>1022</ele>
        <time>2017-12-19T13:48:26Z</time>
      </trkpt>
      <trkpt lat="44.74975" lon="3.85496">
        <ele>1013</ele>
        <time>2017-12-19T13:50:26Z</time>
      </trkpt>
      <trkpt lat="44.74976" lon="3.85588">
        <ele>1008</ele>
        <time>2017-12-19T13:52:26Z</time>
      </trkpt>
      <trkpt lat="44.74984" lon="3.85693">
        <ele>1008</ele>
        <time>2017-12-19T13:54:26Z</time>
      </trkpt>
      <trkpt lat="44.75004" lon="3.85764">
        <ele>1008</ele>
        <time>2017-12-19T13:56:26Z</time>
      </trkpt>
      <trkpt lat="44.75025" lon="3.85839">
        <ele>1006</ele>
        <time>2017-12-19T13:58:26Z</time>
      </trkpt>
      <trkpt lat="44.75028" lon="3.85919">
        <ele>1005</ele>
        <time>2017-12-19T14:00:26Z</time>
      </trkpt>
      <trkpt lat="44.7504" lon="3.86">
        <ele>1005</ele>
        <time>2017-12-19T14:02:26Z</time>
      </trkpt>
      <trkpt lat="44.75054" lon="3.86067">
        <ele>1008</ele>
        <time>2017-12-19T14:04:26Z</time>
      </trkpt>
      <trkpt lat="44.75043" lon="3.86108">
        <ele>1009</ele>
        <time>2017-12-19T14:06:26Z</time>
      </trkpt>
      <trkpt lat="44.75025" lon="3.86138">
        <ele>1010</ele>
        <time>2017-12-19T14:08:26Z</time>
      </trkpt>
      <trkpt lat="44.75048" lon="3.86211">
        <ele>1012</ele>
        <time>2017-12-19T14:10:26Z</time>
      </trkpt>
      <trkpt lat="44.75083" lon="3.86292">
        <ele>1010</ele>
        <time>2017-12-19T14:12:26Z</time>
      </trkpt>
      <trkpt lat="44.75107" lon="3.86363">
        <ele>1010</ele>
        <time>2017-12-19T14:14:26Z</time>
      </trkpt>
      <trkpt lat="44.75146" lon="3.86449">
        <ele>1015</ele>
        <time>2017-12-19T14:16:26Z</time>
      </trkpt>
      <trkpt lat="44.75199" lon="3.86535">
        <ele>1015</ele>
        <time>2017-12-19T14:18:26Z</time>
      </trkpt>
      <trkpt lat="44.75252" lon="3.86616">
        <ele>1012</ele>
        <time>2017-12-19T14:20:26Z</time>
      </trkpt>
      <trkpt lat="44.75301" lon="3.86693">
        <ele>1011</ele>
        <time>2017-12-19T14:22:26Z</time>
      </trkpt>
      <trkpt lat="44.75359" lon="3.8676">
        <ele>1009</ele>
        <time>2017-12-19T14:24:26Z</time>
      </trkpt>
      <trkpt lat="44.75414" lon="3.86816">
        <ele>1008</ele>
        <time>2017-12-19T14:26:26Z</time>
      </trkpt>
      <trkpt lat="44.75473" lon="3.86906">
        <ele>1012</ele>
        <time>2017-12-19T14:28:26Z</time>
      </trkpt>
      <trkpt lat="44.75514" lon="3.8697">
        <ele>1014</ele>
        <time>2017-12-19T14:30:26Z</time>
      </trkpt>
      <trkpt lat="44.75528" lon="3.87045">
        <ele>1015</ele>
        <time>2017-12-19T14:32:26Z</time>
      </trkpt>
      <trkpt lat="44.75583" lon="3.87129">
        <ele>1019</ele>
        <time>2017-12-19T14:34:26Z</time>
      </trkpt>
      <trkpt lat="44.75648" lon="3.87219">
        <ele>1023</ele>
        <time>2017-12-19T14:36:26Z</time>
      </trkpt>
      <trkpt lat="44.75714" lon="3.87273">
        <ele>1028</ele>
        <time>2017-12-19T14:38:26Z</time>
      </trkpt>
      <trkpt lat="44.75782" lon="3.87322">
        <ele>1033</ele>
        <time>2017-12-19T14:40:26Z</time>
      </trkpt>
      <trkpt lat="44.75862" lon="3.87376">
        <ele>1040</ele>
        <time>2017-12-19T14:42:26Z</time>
      </trkpt>
      <trkpt lat="44.75909" lon="3.87416">
        <ele>1045</ele>
        <time>2017-12-19T14:44:26Z</time>
      </trkpt>
      <trkpt lat="44.75961" lon="3.87468">
        <ele>1050</ele>
        <time>2017-12-19T14:46:26Z</time>
      </trkpt>
      <trkpt lat="44.75994" lon="3.87515">
        <ele>1055</ele>
        <time>2017-12-19T14:48:26Z</time>
      </trkpt>
      <trkpt lat="44.76016" lon="3.87603">
        <ele>1061</ele>
        <time>2017-12-19T14:50:26Z</time>
      </trkpt>
      <trkpt lat="44.76041" lon="3.87674">
        <ele>1062</ele>
        <time>2017-12-19T14:52:26Z</time>
      </trkpt>
      <trkpt lat="44.76087" lon="3.87755">
        <ele>1064</ele>
        <time>2017-12-19T14:54:26Z</time>
      </trkpt>
      <trkpt lat="44.76122" lon="3.87833">
        <ele>1070</ele>
        <time>2017-12-19T14:56:26Z</time>
      </trkpt>
      <trkpt lat="44.76148" lon="3.87904">
        <ele>1077</ele>
        <time>2017-12-19T14:58:26Z</time>
      </trkpt>
      <trkpt lat="44.76154" lon="3.87964">
        <ele>1080</ele>
        <time>2017-12-19T15:00:26Z</time>
      </trkpt>
      <trkpt lat="44.76176" lon="3.88039">
        <ele>1083</ele>
        <time>2017-12-19T15:02:26Z</time>
      </trkpt>
      <trkpt lat="44.76244" lon="3.88105">
        <ele>1089</ele>
        <time>2017-12-19T15:04:26Z</time>
      </trkpt>
      <trkpt lat="44.76291" lon="3.88155">
        <ele>1091</ele>
        <time>2017-12-19T15:06:26Z</time>
      </trkpt>
      <trkpt lat="44.7634" lon="3.88195">
        <ele>1092</ele>
        <time>2017-12-19T15:08:26Z</time>
      </trkpt>
      <trkpt lat="44.76403" lon="3.88219">
        <ele>1097</ele>
        <time>2017-12-19T15:10:26Z</time>
      </trkpt>
      <trkpt lat="44.76459" lon="3.88249">
        <ele>1100</ele>
        <time>2017-12-19T15:12:26Z</time>
      </trkpt>
      <trkpt lat="44.76505" lon="3.88268">
        <ele>1106</ele>
        <time>2017-12-19T15:14:26Z</time>
      </trkpt>
      <trkpt lat="44.76527" lon="3.88309">
        <ele>1108</ele>
        <time>2017-12-19T15:16:26Z</time>
      </trkpt>
      <trkpt lat="44.76541" lon="3.88373">
        <ele>1110</ele>
        <time>2017-12-19T15:18:26Z</time>
      </trkpt>
      <trkpt lat="44.76575" lon="3.88393">
        <ele>1114</ele>
        <time>2017-12-19T15:20:26Z</time>
      </trkpt>
      <trkpt lat="44.76616" lon="3.88367">
        <ele>1118</ele>
        <time>2017-12-19T15:22:26Z</time>
      </trkpt>
      <trkpt lat="44.7666" lon="3.88341">
        <ele>1121</ele>
        <time>2017-12-19T15:24:26Z</time>
      </trkpt>
      <trkpt lat="44.767" lon="3.88337">
        <ele>1127</ele>
        <time>2017-12-19T15:26:26Z</time>
      </trkpt>
      <trkpt lat="44.76735" lon="3.88337">
        <ele>1132</ele>
        <time>2017-12-19T15:28:26Z</time>
      </trkpt>
      <trkpt lat="44.76771" lon="3.88386">
        <ele>1133</ele>
        <time>2017-12-19T15:30:26Z</time>
      </trkpt>
      <trkpt lat="44.76799" lon="3.88419">
        <ele>1134</ele>
        <time>2017-12-19T15:32:26Z</time>
      </trkpt>
      <trkpt lat="44.76834" lon="3.88406">
        <ele>1140</ele>
        <time>2017-12-19T15:34:26Z</time>
      </trkpt>
      <trkpt lat="44.76864" lon="3.88397">
        <ele>1144</ele>
        <time>2017-12-19T15:36:26Z</time>
      </trkpt>
      <trkpt lat="44.76898" lon="3.88414">
        <ele>1146</ele>
        <time>2017-12-19T15:38:26Z</time>
      </trkpt>
      <trkpt lat="44.76927" lon="3.88391">
        <ele>1151</ele>
        <time>2017-12-19T15:40:26Z</time>
      </trkpt>
      <trkpt lat="44.76962" lon="3.88421">
        <ele>1155</ele>
        <time>2017-12-19T15:42:26Z</time>
      </trkpt>
      <trkpt lat="44.76985" lon="3.88457">
        <ele>1155</ele>
        <time>2017-12-19T15:44:26Z</time>
      </trkpt>
      <trkpt lat="44.77007" lon="3.88522">
        <ele>1154</ele>
        <time>2017-12-19T15:46:26Z</time>
      </trkpt>
      <trkpt lat="44.77033" lon="3.88584">
        <ele>1156</ele>
        <time>2017-12-19T15:48:26Z</time>
      </trkpt>
      <trkpt lat="44.77041" lon="3.88655">
        <ele>1156</ele>
        <time>2017-12-19T15:50:26Z</time>
      </trkpt>
      <trkpt lat="44.77045" lon="3.88736">
        <ele>1156</ele>
        <time>2017-12-19T15:52:26Z</time>
      </trkpt>
      <trkpt lat="44.77059" lon="3.88818">
        <ele>1157</ele>
        <time>2017-12-19T15:54:26Z</time>
      </trkpt>
      <trkpt lat="44.77052" lon="3.88884">
        <ele>1155</ele>
        <time>2017-12-19T15:56:26Z</time>
      </trkpt>
      <trkpt lat="44.77039" lon="3.88953">
        <ele>1156</ele>
        <time>2017-12-19T15:58:26Z</time>
      </trkpt>
      <trkpt lat="44.77017" lon="3.89002">
        <ele>1160</ele>
        <time>2017-12-19T16:00:26Z</time>
      </trkpt>
      <trkpt lat="44.77" lon="3.89045">
        <ele>1165</ele>
        <time>2017-12-19T16:02:26Z</time>
      </trkpt>
      <trkpt lat="44.77001" lon="3.89124">
        <ele>1171</ele>
        <time>2017-12-19T16:04:26Z</time>
      </trkpt>
      <trkpt lat="44.77" lon="3.89208">
        <ele>1176</ele>
        <time>2017-12-19T16:06:26Z</time>
      </trkpt>
      <trkpt lat="44.76995" lon="3.89279">
        <ele>1180</ele>
        <time>2017-12-19T16:08:26Z</time>
      </trkpt>
      <trkpt lat="44.76986" lon="3.8936">
        <ele>1183</ele>
        <time>2017-12-19T16:10:26Z</time>
      </trkpt>
      <trkpt lat="44.76978" lon="3.89416">
        <ele>1186</ele>
        <time>2017-12-19T16:12:26Z</time>
      </trkpt>
      <trkpt lat="44.76966" lon="3.89463">
        <ele>1187</ele>
        <time>2017-12-19T16:14:26Z</time>
      </trkpt>
      <trkpt lat="44.7694" lon="3.89558">
        <ele>1192</ele>
        <time>2017-12-19T16:16:26Z</time>
      </trkpt>
      <trkpt lat="44.76925" lon="3.89635">
        <ele>1196</ele>
        <time>2017-12-19T16:18:26Z</time>
      </trkpt>
      <trkpt lat="44.7691" lon="3.89708">
        <ele>1201</ele>
        <time>2017-12-19T16:20:26Z</time>
      </trkpt>
      <trkpt lat="44.76893" lon="3.89796">
        <ele>1212</ele>
        <time>2017-12-19T16:22:26Z</time>
      </trkpt>
      <trkpt lat="44.76869" lon="3.89873">
        <ele>1224</ele>
        <time>2017-12-19T16:24:26Z</time>
      </trkpt>
      <trkpt lat="44.7684" lon="3.89951">
        <ele>1238</ele>
        <time>2017-12-19T16:26:26Z</time>
      </trkpt>
      <trkpt lat="44.76814" lon="3.90015">
        <ele>1250</ele>
        <time>2017-12-19T16:28:26Z</time>
      </trkpt>
      <trkpt lat="44.76773" lon="3.90079">
        <ele>1258</ele>
        <time>2017-12-19T16:30:26Z</time>
      </trkpt>
      <trkpt lat="44.76748" lon="3.90176">
        <ele>1272</ele>
        <time>2017-12-19T16:32:26Z</time>
      </trkpt>
      <trkpt lat="44.76732" lon="3.90283">
        <ele>1281</ele>
        <time>2017-12-19T16:34:26Z</time>
      </trkpt>
      <trkpt lat="44.76718" lon="3.90373">
        <ele>1284</ele>
        <time>2017-12-19T16:36:26Z</time>
      </trkpt>
      <trkpt lat="44.7671" lon="3.9047">
        <ele>1286</ele>
        <time>2017-12-19T16:38:26Z</time>
      </trkpt>
      <trkpt lat="44.76695" lon="3.90564">
        <ele>1287</ele>
        <time>2017-12-19T16:40:26Z</time>
      </trkpt>
      <trkpt lat="44.7668" lon="3.90684">
        <ele>1288</ele>
        <time>2017-12-19T16:42:26Z</time>
      </trkpt>
      <trkpt lat="44.76672" lon="3.90783">
        <ele>1291</ele>
        <time>2017-12-19T16:44:26Z</time>
      </trkpt>
      <trkpt lat="44.7666" lon="3.90867">
        <ele>1293</ele>
        <time>2017-12-19T16:46:26Z</time>
      </trkpt>
      <trkpt lat="44.7664" lon="3.90953">
        <ele>1295</ele>
        <time>2017-12-19T16:48:26Z</time>
      </trkpt>
      <trkpt lat="44.7662" lon="3.91028">
        <ele>1295</ele>
        <time>2017-12-19T16:50:26Z</time>
      </trkpt>
      <trkpt lat="44.76598" lon="3.91124">
        <ele>1294</ele>
        <time>2017-12-19T16:52:26Z</time>
      </trkpt>
      <trkpt lat="44.76576" lon="3.91195">
        <ele>1292</ele>
        <time>2017-12-19T16:54:26Z</time>
      </trkpt>
      <trkpt lat="44.76561" lon="3.91251">
        <ele>1288</ele>
        <time>2017-12-19T16:56:26Z</time>
      </trkpt>
      <trkpt lat="44.7655" lon="3.91317">
        <ele>1285</ele>
        <time>2017-12-19T16:58:26Z</time>
      </trkpt>
      <trkpt lat="44.76534" lon="3.91375">
        <ele>1287</ele>
        <time>2017-12-19T17:00:26Z</time>
      </trkpt>
      <trkpt lat="44.7659" lon="3.91401">
        <ele>1289</ele>
        <time>2017-12-19T17:02:26Z</time>
      </trkpt>
      <trkpt lat="44.76625" lon="3.91395">
        <ele>1288</ele>
        <time>2017-12-19T17:04:26Z</time>
      </trkpt>
      <trkpt lat="44.76655" lon="3.91354">
        <ele>1290</ele>
        <time>2017-12-19T17:06:26Z</time>
      </trkpt>
      <trkpt lat="44.76689" lon="3.91296">
        <ele>1294</ele>
        <time>2017-12-19T17:08:26Z</time>
      </trkpt>
      <trkpt lat="44.76739" lon="3.91212">
        <ele>1298</ele>
        <time>2017-12-19T17:10:26Z</time>
      </trkpt>
      <trkpt lat="44.76826" lon="3.91092">
        <ele>1300</ele>
        <time>2017-12-19T17:12:26Z</time>
      </trkpt>
      <trkpt lat="44.76901" lon="3.90987">
        <ele>1304</ele>
        <time>2017-12-19T17:14:26Z</time>
      </trkpt>
      <trkpt lat="44.76971" lon="3.90897">
        <ele>1303</ele>
        <time>2017-12-19T17:16:26Z</time>
      </trkpt>
      <trkpt lat="44.77042" lon="3.90792">
        <ele>1298</ele>
        <time>2017-12-19T17:18:26Z</time>
      </trkpt>
      <trkpt lat="44.77091" lon="3.90747">
        <ele>1297</ele>
        <time>2017-12-19T17:20:26Z</time>
      </trkpt>
      <trkpt lat="44.77205" lon="3.90665">
        <ele>1292</ele>
        <time>2017-12-19T17:22:26Z</time>
      </trkpt>
      <trkpt lat="44.77329" lon="3.90584">
        <ele>1288</ele>
        <time>2017-12-19T17:24:26Z</time>
      </trkpt>
      <trkpt lat="44.77425" lon="3.90517">
        <ele>1281</ele>
        <time>2017-12-19T17:26:26Z</time>
      </trkpt>
      <trkpt lat="44.77499" lon="3.90461">
        <ele>1278</ele>
        <time>2017-12-19T17:28:26Z</time>
      </trkpt>
      <trkpt lat="44.77618" lon="3.90382">
        <ele>1275</ele>
        <time>2017-12-19T17:30:26Z</time>
      </trkpt>
      <trkpt lat="44.77763" lon="3.90283">
        <ele>1264</ele>
        <time>2017-12-19T17:32:26Z</time>
      </trkpt>
      <trkpt lat="44.77888" lon="3.90202">
        <ele>1256</ele>
        <time>2017-12-19T17:34:26Z</time>
      </trkpt>
      <trkpt lat="44.77972" lon="3.90137">
        <ele>1253</ele>
        <time>2017-12-19T17:36:26Z</time>
      </trkpt>
      <trkpt lat="44.78043" lon="3.90096">
        <ele>1249</ele>
        <time>2017-12-19T17:38:26Z</time>
      </trkpt>
      <trkpt lat="44.78087" lon="3.9006">
        <ele>1246</ele>
        <time>2017-12-19T17:40:26Z</time>
      </trkpt>
      <trkpt lat="44.78128" lon="3.90049">
        <ele>1242</ele>
        <time>2017-12-19T17:42:26Z</time>
      </trkpt>
      <trkpt lat="44.78179" lon="3.89996">
        <ele>1239</ele>
        <time>2017-12-19T17:44:26Z</time>
      </trkpt>
      <trkpt lat="44.78218" lon="3.89938">
        <ele>1238</ele>
        <time>2017-12-19T17:46:26Z</time>
      </trkpt>
      <trkpt lat="44.78256" lon="3.89886">
        <ele>1236</ele>
        <time>2017-12-19T17:48:26Z</time>
      </trkpt>
      <trkpt lat="44.78293" lon="3.89966">
        <ele>1235</ele>
        <time>2017-12-19T17:50:26Z</time>
      </trkpt>
      <trkpt lat="44.78319" lon="3.90004">
        <ele>1231</ele>
        <time>2017-12-19T17:52:26Z</time>
      </trkpt>
      <trkpt lat="44.78355" lon="3.90056">
        <ele>1226</ele>
        <time>2017-12-19T17:54:26Z</time>
      </trkpt>
      <trkpt lat="44.78389" lon="3.9012">
        <ele>1220</ele>
        <time>2017-12-19T17:56:26Z</time>
      </trkpt>
      <trkpt lat="44.78433" lon="3.90204">
        <ele>1211</ele>
        <time>2017-12-19T17:58:26Z</time>
      </trkpt>
      <trkpt lat="44.78479" lon="3.90253">
        <ele>1206</ele>
        <time>2017-12-19T18:00:26Z</time>
      </trkpt>
      <trkpt lat="44.78509" lon="3.90285">
        <ele>1206</ele>
        <time>2017-12-19T18:02:26Z</time>
      </trkpt>
      <trkpt lat="44.78526" lon="3.90328">
        <ele>1206</ele>
        <time>2017-12-19T18:04:26Z</time>
      </trkpt>
      <trkpt lat="44.78543" lon="3.90399">
        <ele>1203</ele>
        <time>2017-12-19T18:06:26Z</time>
      </trkpt>
      <trkpt lat="44.78579" lon="3.90453">
        <ele>1198</ele>
        <time>2017-12-19T18:08:26Z</time>
      </trkpt>
      <trkpt lat="44.78614" lon="3.90511">
        <ele>1198</ele>
        <time>2017-12-19T18:10:26Z</time>
      </trkpt>
      <trkpt lat="44.78645" lon="3.90556">
        <ele>1197</ele>
        <time>2017-12-19T18:12:26Z</time>
      </trkpt>
      <trkpt lat="44.7868" lon="3.90586">
        <ele>1196</ele>
        <time>2017-12-19T18:14:26Z</time>
      </trkpt>
      <trkpt lat="44.78727" lon="3.90586">
        <ele>1197</ele>
        <time>2017-12-19T18:16:26Z</time>
      </trkpt>
      <trkpt lat="44.78802" lon="3.90599">
        <ele>1203</ele>
        <time>2017-12-19T18:18:26Z</time>
      </trkpt>
      <trkpt lat="44.78835" lon="3.90648">
        <ele>1203</ele>
        <time>2017-12-19T18:20:26Z</time>
      </trkpt>
      <trkpt lat="44.78864" lon="3.90699">
        <ele>1203</ele>
        <time>2017-12-19T18:22:26Z</time>
      </trkpt>
      <trkpt lat="44.7889" lon="3.90751">
        <ele>1201</ele>
        <time>2017-12-19T18:24:26Z</time>
      </trkpt>
      <trkpt lat="44.78937" lon="3.90749">
        <ele>1205</ele>
        <time>2017-12-19T18:26:26Z</time>
      </trkpt>
      <trkpt lat="44.78984" lon="3.90745">
        <ele>1208</ele>
        <time>2017-12-19T18:28:26Z</time>
      </trkpt>
      <trkpt lat="44.79054" lon="3.90725">
        <ele>1214</ele>
        <time>2017-12-19T18:30:26Z</time>
      </trkpt>
      <trkpt lat="44.79102" lon="3.90729">
        <ele>1215</ele>
        <time>2017-12-19T18:32:26Z</time>
      </trkpt>
      <trkpt lat="44.79152" lon="3.90719">
        <ele>1216</ele>
        <time>2017-12-19T18:34:26Z</time>
      </trkpt>
      <trkpt lat="44.79156" lon="3.90665">
        <ele>1226</ele>
        <time>2017-12-19T18:36:26Z</time>
      </trkpt>
      <trkpt lat="44.79152" lon="3.90579">
        <ele>1243</ele>
        <time>2017-12-19T18:38:26Z</time>
      </trkpt>
      <trkpt lat="44.79152" lon="3.90517">
        <ele>1250</ele>
        <time>2017-12-19T18:40:26Z</time>
      </trkpt>
      <trkpt lat="44.79083" lon="3.90532">
        <ele>1245</ele>
        <time>2017-12-19T18:42:26Z</time>
      </trkpt>
      <trkpt lat="44.79021" lon="3.90534">
        <ele>1245</ele>
        <time>2017-12-19T18:44:26Z</time>
      </trkpt>
      <trkpt lat="44.78977" lon="3.90521">
        <ele>1242</ele>
        <time>2017-12-19T18:46:26Z</time>
      </trkpt>
      <trkpt lat="44.78965" lon="3.9047">
        <ele>1244</ele>
        <time>2017-12-19T18:48:26Z</time>
      </trkpt>
      <trkpt lat="44.79" lon="3.90408">
        <ele>1255</ele>
        <time>2017-12-19T18:50:26Z</time>
      </trkpt>
      <trkpt lat="44.79035" lon="3.9029">
        <ele>1260</ele>
        <time>2017-12-19T18:52:26Z</time>
      </trkpt>
      <trkpt lat="44.79079" lon="3.90124">
        <ele>1266</ele>
        <time>2017-12-19T18:54:26Z</time>
      </trkpt>
      <trkpt lat="44.79099" lon="3.90054">
        <ele>1263</ele>
        <time>2017-12-19T18:56:26Z</time>
      </trkpt>
      <trkpt lat="44.79123" lon="3.89989">
        <ele>1258</ele>
        <time>2017-12-19T18:58:26Z</time>
      </trkpt>
      <trkpt lat="44.79156" lon="3.89972">
        <ele>1257</ele>
        <time>2017-12-19T19:00:26Z</time>
      </trkpt>
      <trkpt lat="44.79178" lon="3.89972">
        <ele>1256</ele>
        <time>2017-12-19T19:02:26Z</time>
      </trkpt>
      <trkpt lat="44.79172" lon="3.90077">
        <ele>1266</ele>
        <time>2017-12-19T19:04:26Z</time>
      </trkpt>
      <trkpt lat="44.79231" lon="3.90094">
        <ele>1265</ele>
        <time>2017-12-19T19:06:26Z</time>
      </trkpt>
      <trkpt lat="44.79252" lon="3.90146">
        <ele>1266</ele>
        <time>2017-12-19T19:08:26Z</time>
      </trkpt>
      <trkpt lat="44.79281" lon="3.90227">
        <ele>1263</ele>
        <time>2017-12-19T19:10:26Z</time>
      </trkpt>
      <trkpt lat="44.79306" lon="3.90275">
        <ele>1258</ele>
        <time>2017-12-19T19:12:26Z</time>
      </trkpt>
      <trkpt lat="44.79344" lon="3.903">
        <ele>1251</ele>
        <time>2017-12-19T19:14:26Z</time>
      </trkpt>
      <trkpt lat="44.79386" lon="3.90322">
        <ele>1246</ele>
        <time>2017-12-19T19:16:26Z</time>
      </trkpt>
      <trkpt lat="44.79423" lon="3.90328">
        <ele>1242</ele>
        <time>2017-12-19T19:18:26Z</time>
      </trkpt>
      <trkpt lat="44.79455" lon="3.90315">
        <ele>1237</ele>
        <time>2017-12-19T19:20:26Z</time>
      </trkpt>
      <trkpt lat="44.79473" lon="3.90257">
        <ele>1233</ele>
        <time>2017-12-19T19:22:26Z</time>
      </trkpt>
      <trkpt lat="44.79581" lon="3.9029">
        <ele>1227</ele>
        <time>2017-12-19T19:24:26Z</time>
      </trkpt>
      <trkpt lat="44.79686" lon="3.90324">
        <ele>1227</ele>
        <time>2017-12-19T19:26:26Z</time>
      </trkpt>
      <trkpt lat="44.7975" lon="3.90348">
        <ele>1228</ele>
        <time>2017-12-19T19:28:26Z</time>
      </trkpt>
      <trkpt lat="44.79805" lon="3.90388">
        <ele>1225</ele>
        <time>2017-12-19T19:30:26Z</time>
      </trkpt>
      <trkpt lat="44.79863" lon="3.90433">
        <ele>1222</ele>
        <time>2017-12-19T19:32:26Z</time>
      </trkpt>
      <trkpt lat="44.79933" lon="3.9047">
        <ele>1215</ele>
        <time>2017-12-19T19:34:26Z</time>
      </trkpt>
      <trkpt lat="44.79995" lon="3.90502">
        <ele>1209</ele>
        <time>2017-12-19T19:36:26Z</time>
      </trkpt>
      <trkpt lat="44.80043" lon="3.9053">
        <ele>1203</ele>
        <time>2017-12-19T19:38:26Z</time>
      </trkpt>
      <trkpt lat="44.80107" lon="3.90517">
        <ele>1198</ele>
        <time>2017-12-19T19:40:26Z</time>
      </trkpt>
      <trkpt lat="44.80166" lon="3.90508">
        <ele>1195</ele>
        <time>2017-12-19T19:42:26Z</time>
      </trkpt>
      <trkpt lat="44.80209" lon="3.90532">
        <ele>1194</ele>
        <time>2017-12-19T19:44:26Z</time>
      </trkpt>
      <trkpt lat="44.80269" lon="3.90549">
        <ele>1196</ele>
        <time>2017-12-19T19:46:26Z</time>
      </trkpt>
      <trkpt lat="44.80327" lon="3.90554">
        <ele>1200</ele>
        <time>2017-12-19T19:48:26Z</time>
      </trkpt>
      <trkpt lat="44.80362" lon="3.90566">
        <ele>1202</ele>
        <time>2017-12-19T19:50:26Z</time>
      </trkpt>
      <trkpt lat="44.80394" lon="3.90571">
        <ele>1204</ele>
        <time>2017-12-19T19:52:26Z</time>
      </trkpt>
      <trkpt lat="44.80417" lon="3.90605">
        <ele>1205</ele>
        <time>2017-12-19T19:54:26Z</time>
      </trkpt>
      <trkpt lat="44.80492" lon="3.90609">
        <ele>1207</ele>
        <time>2017-12-19T19:56:26Z</time>
      </trkpt>
      <trkpt lat="44.80554" lon="3.90592">
        <ele>1210</ele>
        <time>2017-12-19T19:58:26Z</time>
      </trkpt>
      <trkpt lat="44.80629" lon="3.90629">
        <ele>1212</ele>
        <time>2017-12-19T20:00:26Z</time>
      </trkpt>
      <trkpt lat="44.80697" lon="3.9062">
        <ele>1214</ele>
        <time>2017-12-19T20:02:26Z</time>
      </trkpt>
      <trkpt lat="44.80766" lon="3.90607">
        <ele>1217</ele>
        <time>2017-12-19T20:04:26Z</time>
      </trkpt>
      <trkpt lat="44.8083" lon="3.90588">
        <ele>1221</ele>
        <time>2017-12-19T20:06:26Z</time>
      </trkpt>
      <trkpt lat="44.80889" lon="3.90586">
        <ele>1226</ele>
        <time>2017-12-19T20:08:26Z</time>
      </trkpt>
      <trkpt lat="44.80968" lon="3.90599">
        <ele>1230</ele>
        <time>2017-12-19T20:10:26Z</time>
      </trkpt>
      <trkpt lat="44.81041" lon="3.90609">
        <ele>1233</ele>
        <time>2017-12-19T20:12:26Z</time>
      </trkpt>
      <trkpt lat="44.81143" lon="3.90614">
        <ele>1234</ele>
        <time>2017-12-19T20:14:26Z</time>
      </trkpt>
      <trkpt lat="44.81213" lon="3.90611">
        <ele>1230</ele>
        <time>2017-12-19T20:16:26Z</time>
      </trkpt>
      <trkpt lat="44.81259" lon="3.9056">
        <ele>1234</ele>
        <time>2017-12-19T20:18:26Z</time>
      </trkpt>
      <trkpt lat="44.81299" lon="3.90519">
        <ele>1236</ele>
        <time>2017-12-19T20:20:26Z</time>
      </trkpt>
      <trkpt lat="44.81321" lon="3.90487">
        <ele>1237</ele>
        <time>2017-12-19T20:22:26Z</time>
      </trkpt>
      <trkpt lat="44.8128" lon="3.9044">
        <ele>1252</ele>
        <time>2017-12-19T20:24:26Z</time>
      </trkpt>
      <trkpt lat="44.81236" lon="3.90478">
        <ele>1252</ele>
        <time>2017-12-19T20:26:26Z</time>
      </trkpt>
      <trkpt lat="44.81194" lon="3.90457">
        <ele>1257</ele>
        <time>2017-12-19T20:28:26Z</time>
      </trkpt>
      <trkpt lat="44.81178" lon="3.90367">
        <ele>1269</ele>
        <time>2017-12-19T20:30:26Z</time>
      </trkpt>
      <trkpt lat="44.81152" lon="3.90275">
        <ele>1281</ele>
        <time>2017-12-19T20:32:26Z</time>
      </trkpt>
      <trkpt lat="44.81104" lon="3.90225">
        <ele>1286</ele>
        <time>2017-12-19T20:34:26Z</time>
      </trkpt>
      <trkpt lat="44.81035" lon="3.90195">
        <ele>1284</ele>
        <time>2017-12-19T20:36:26Z</time>
      </trkpt>
      <trkpt lat="44.80988" lon="3.9015">
        <ele>1282</ele>
        <time>2017-12-19T20:38:26Z</time>
      </trkpt>
      <trkpt lat="44.80947" lon="3.90101">
        <ele>1277</ele>
        <time>2017-12-19T20:40:26Z</time>
      </trkpt>
      <trkpt lat="44.80924" lon="3.90011">
        <ele>1277</ele>
        <time>2017-12-19T20:42:26Z</time>
      </trkpt>
      <trkpt lat="44.80932" lon="3.89927">
        <ele>1279</ele>
        <time>2017-12-19T20:44:26Z</time>
      </trkpt>
      <trkpt lat="44.80942" lon="3.89839">
        <ele>1275</ele>
        <time>2017-12-19T20:46:26Z</time>
      </trkpt>
      <trkpt lat="44.80947" lon="3.89762">
        <ele>1268</ele>
        <time>2017-12-19T20:48:26Z</time>
      </trkpt>
      <trkpt lat="44.80939" lon="3.89689">
        <ele>1256</ele>
        <time>2017-12-19T20:50:26Z</time>
      </trkpt>
      <trkpt lat="44.80938" lon="3.89648">
        <ele>1250</ele>
        <time>2017-12-19T20:52:26Z</time>
      </trkpt>
      <trkpt lat="44.80897" lon="3.89642">
        <ele>1240</ele>
        <time>2017-12-19T20:54:26Z</time>
      </trkpt>
      <trkpt lat="44.80851" lon="3.89672">
        <ele>1236</ele>
        <time>2017-12-19T20:56:26Z</time>
      </trkpt>
      <trkpt lat="44.80819" lon="3.89708">
        <ele>1234</ele>
        <time>2017-12-19T20:58:26Z</time>
      </trkpt>
      <trkpt lat="44.80786" lon="3.89736">
        <ele>1233</ele>
        <time>2017-12-19T21:00:26Z</time>
      </trkpt>
      <trkpt lat="44.80738" lon="3.8977">
        <ele>1232</ele>
        <time>2017-12-19T21:02:26Z</time>
      </trkpt>
      <trkpt lat="44.80697" lon="3.89845">
        <ele>1232</ele>
        <time>2017-12-19T21:04:26Z</time>
      </trkpt>
      <trkpt lat="44.80656" lon="3.89914">
        <ele>1231</ele>
        <time>2017-12-19T21:06:26Z</time>
      </trkpt>
      <trkpt lat="44.80627" lon="3.89946">
        <ele>1229</ele>
        <time>2017-12-19T21:08:26Z</time>
      </trkpt>
      <trkpt lat="44.80606" lon="3.90009">
        <ele>1228</ele>
        <time>2017-12-19T21:10:26Z</time>
      </trkpt>
      <trkpt lat="44.80545" lon="3.90011">
        <ele>1223</ele>
        <time>2017-12-19T21:12:26Z</time>
      </trkpt>
      <trkpt lat="44.80483" lon="3.90006">
        <ele>1218</ele>
        <time>2017-12-19T21:14:26Z</time>
      </trkpt>
      <trkpt lat="44.80416" lon="3.89993">
        <ele>1213</ele>
        <time>2017-12-19T21:16:26Z</time>
      </trkpt>
      <trkpt lat="44.80384" lon="3.89981">
        <ele>1211</ele>
        <time>2017-12-19T21:18:26Z</time>
      </trkpt>
      <trkpt lat="44.80352" lon="3.89963">
        <ele>1210</ele>
        <time>2017-12-19T21:20:26Z</time>
      </trkpt>
      <trkpt lat="44.80323" lon="3.89918">
        <ele>1209</ele>
        <time>2017-12-19T21:22:26Z</time>
      </trkpt>
      <trkpt lat="44.80262" lon="3.89938">
        <ele>1206</ele>
        <time>2017-12-19T21:24:26Z</time>
      </trkpt>
      <trkpt lat="44.80222" lon="3.89989">
        <ele>1204</ele>
        <time>2017-12-19T21:26:26Z</time>
      </trkpt>
      <trkpt lat="44.80195" lon="3.90086">
        <ele>1204</ele>
        <time>2017-12-19T21:28:26Z</time>
      </trkpt>
      <trkpt lat="44.80163" lon="3.90122">
        <ele>1203</ele>
        <time>2017-12-19T21:30:26Z</time>
      </trkpt>
      <trkpt lat="44.80137" lon="3.90161">
        <ele>1203</ele>
        <time>2017-12-19T21:32:26Z</time>
      </trkpt>
      <trkpt lat="44.80102" lon="3.90127">
        <ele>1205</ele>
        <time>2017-12-19T21:34:26Z</time>
      </trkpt>
      <trkpt lat="44.80073" lon="3.90004">
        <ele>1204</ele>
        <time>2017-12-19T21:36:26Z</time>
      </trkpt>
      <trkpt lat="44.80053" lon="3.89927">
        <ele>1204</ele>
        <time>2017-12-19T21:38:26Z</time>
      </trkpt>
      <trkpt lat="44.79995" lon="3.89899">
        <ele>1205</ele>
        <time>2017-12-19T21:40:26Z</time>
      </trkpt>
      <trkpt lat="44.79938" lon="3.89875">
        <ele>1203</ele>
        <time>2017-12-19T21:42:26Z</time>
      </trkpt>
      <trkpt lat="44.799" lon="3.8986">
        <ele>1203</ele>
        <time>2017-12-19T21:44:26Z</time>
      </trkpt>
      <trkpt lat="44.79887" lon="3.8979">
        <ele>1201</ele>
        <time>2017-12-19T21:46:26Z</time>
      </trkpt>
      <trkpt lat="44.79872" lon="3.89682">
        <ele>1199</ele>
        <time>2017-12-19T21:48:26Z</time>
      </trkpt>
      <trkpt lat="44.79836" lon="3.89616">
        <ele>1197</ele>
        <time>2017-12-19T21:50:26Z</time>
      </trkpt>
      <trkpt lat="44.79816" lon="3.89573">
        <ele>1196</ele>
        <time>2017-12-19T21:52:26Z</time>
      </trkpt>
      <trkpt lat="44.79813" lon="3.89487">
        <ele>1195</ele>
        <time>2017-12-19T21:54:26Z</time>
      </trkpt>
      <trkpt lat="44.79808" lon="3.89363">
        <ele>1197</ele>
        <time>2017-12-19T21:56:26Z</time>
      </trkpt>
      <trkpt lat="44.79807" lon="3.89266">
        <ele>1198</ele>
        <time>2017-12-19T21:58:26Z</time>
      </trkpt>
      <trkpt lat="44.79807" lon="3.89189">
        <ele>1202</ele>
        <time>2017-12-19T22:00:26Z</time>
      </trkpt>
      <trkpt lat="44.79779" lon="3.8912">
        <ele>1207</ele>
        <time>2017-12-19T22:02:26Z</time>
      </trkpt>
      <trkpt lat="44.79711" lon="3.89112">
        <ele>1215</ele>
        <time>2017-12-19T22:04:26Z</time>
      </trkpt>
      <trkpt lat="44.79657" lon="3.89114">
        <ele>1223</ele>
        <time>2017-12-19T22:06:26Z</time>
      </trkpt>
      <trkpt lat="44.79615" lon="3.89148">
        <ele>1228</ele>
        <time>2017-12-19T22:08:26Z</time>
      </trkpt>
      <trkpt lat="44.79587" lon="3.89195">
        <ele>1231</ele>
        <time>2017-12-19T22:10:26Z</time>
      </trkpt>
      <trkpt lat="44.79546" lon="3.89236">
        <ele>1234</ele>
        <time>2017-12-19T22:12:26Z</time>
      </trkpt>
      <trkpt lat="44.79501" lon="3.89309">
        <ele>1231</ele>
        <time>2017-12-19T22:14:26Z</time>
      </trkpt>
      <trkpt lat="44.79455" lon="3.89328">
        <ele>1231</ele>
        <time>2017-12-19T22:16:26Z</time>
      </trkpt>
      <trkpt lat="44.79415" lon="3.89358">
        <ele>1233</ele>
        <time>2017-12-19T22:18:26Z</time>
      </trkpt>
      <trkpt lat="44.79357" lon="3.89376">
        <ele>1237</ele>
        <time>2017-12-19T22:20:26Z</time>
      </trkpt>
      <trkpt lat="44.79325" lon="3.89406">
        <ele>1241</ele>
        <time>2017-12-19T22:22:26Z</time>
      </trkpt>
      <trkpt lat="44.79258" lon="3.89388">
        <ele>1246</ele>
        <time>2017-12-19T22:24:26Z</time>
      </trkpt>
      <trkpt lat="44.79198" lon="3.89388">
        <ele>1248</ele>
        <time>2017-12-19T22:26:26Z</time>
      </trkpt>
      <trkpt lat="44.79176" lon="3.89376">
        <ele>1248</ele>
        <time>2017-12-19T22:28:26Z</time>
      </trkpt>
      <trkpt lat="44.79201" lon="3.89311">
        <ele>1247</ele>
        <time>2017-12-19T22:30:26Z</time>
      </trkpt>
      <trkpt lat="44.79239" lon="3.89236">
        <ele>1248</ele>
        <time>2017-12-19T22:32:26Z</time>
      </trkpt>
      <trkpt lat="44.79281" lon="3.89178">
        <ele>1250</ele>
        <time>2017-12-19T22:34:26Z</time>
      </trkpt>
      <trkpt lat="44.79327" lon="3.89167">
        <ele>1247</ele>
        <time>2017-12-19T22:36:26Z</time>
      </trkpt>
      <trkpt lat="44.79382" lon="3.89159">
        <ele>1246</ele>
        <time>2017-12-19T22:38:26Z</time>
      </trkpt>
      <trkpt lat="44.79394" lon="3.88912">
        <ele>1255</ele>
        <time>2017-12-19T22:40:26Z</time>
      </trkpt>
      <trkpt lat="44.79402" lon="3.88723">
        <ele>1249</ele>
        <time>2017-12-19T22:42:26Z</time>
      </trkpt>
      <trkpt lat="44.79301" lon="3.88766">
        <ele>1261</ele>
        <time>2017-12-19T22:44:26Z</time>
      </trkpt>
      <trkpt lat="44.79251" lon="3.88788">
        <ele>1266</ele>
        <time>2017-12-19T22:46:26Z</time>
      </trkpt>
      <trkpt lat="44.79195" lon="3.88785">
        <ele>1272</ele>
        <time>2017-12-19T22:48:26Z</time>
      </trkpt>
      <trkpt lat="44.79161" lon="3.88781">
        <ele>1275</ele>
        <time>2017-12-19T22:50:26Z</time>
      </trkpt>
      <trkpt lat="44.79109" lon="3.8885">
        <ele>1278</ele>
        <time>2017-12-19T22:52:26Z</time>
      </trkpt>
      <trkpt lat="44.79048" lon="3.8894">
        <ele>1274</ele>
        <time>2017-12-19T22:54:26Z</time>
      </trkpt>
      <trkpt lat="44.7898" lon="3.89043">
        <ele>1271</ele>
        <time>2017-12-19T22:56:26Z</time>
      </trkpt>
      <trkpt lat="44.7892" lon="3.89122">
        <ele>1270</ele>
        <time>2017-12-19T22:58:26Z</time>
      </trkpt>
      <trkpt lat="44.78863" lon="3.89187">
        <ele>1273</ele>
        <time>2017-12-19T23:00:26Z</time>
      </trkpt>
      <trkpt lat="44.78821" lon="3.89253">
        <ele>1273</ele>
        <time>2017-12-19T23:02:26Z</time>
      </trkpt>
      <trkpt lat="44.78695" lon="3.89425">
        <ele>1262</ele>
        <time>2017-12-19T23:04:26Z</time>
      </trkpt>
      <trkpt lat="44.78614" lon="3.89373">
        <ele>1264</ele>
        <time>2017-12-19T23:06:26Z</time>
      </trkpt>
      <trkpt lat="44.78563" lon="3.89337">
        <ele>1270</ele>
        <time>2017-12-19T23:08:26Z</time>
      </trkpt>
      <trkpt lat="44.78506" lon="3.89345">
        <ele>1268</ele>
        <time>2017-12-19T23:10:26Z</time>
      </trkpt>
      <trkpt lat="44.78453" lon="3.89358">
        <ele>1260</ele>
        <time>2017-12-19T23:12:26Z</time>
      </trkpt>
      <trkpt lat="44.78409" lon="3.89345">
        <ele>1258</ele>
        <time>2017-12-19T23:14:26Z</time>
      </trkpt>
      <trkpt lat="44.78357" lon="3.89326">
        <ele>1255</ele>
        <time>2017-12-19T23:16:26Z</time>
      </trkpt>
      <trkpt lat="44.78317" lon="3.89305">
        <ele>1252</ele>
        <time>2017-12-19T23:18:26Z</time>
      </trkpt>
      <trkpt lat="44.78276" lon="3.89305">
        <ele>1249</ele>
        <time>2017-12-19T23:20:26Z</time>
      </trkpt>
      <trkpt lat="44.78221" lon="3.89318">
        <ele>1245</ele>
        <time>2017-12-19T23:22:26Z</time>
      </trkpt>
      <trkpt lat="44.78157" lon="3.8929">
        <ele>1242</ele>
        <time>2017-12-19T23:24:26Z</time>
      </trkpt>
      <trkpt lat="44.78103" lon="3.89268">
        <ele>1242</ele>
        <time>2017-12-19T23:26:26Z</time>
      </trkpt>
      <trkpt lat="44.78014" lon="3.89234">
        <ele>1237</ele>
        <time>2017-12-19T23:28:26Z</time>
      </trkpt>
      <trkpt lat="44.7799" lon="3.89251">
        <ele>1237</ele>
        <time>2017-12-19T23:30:26Z</time>
      </trkpt>
      <trkpt lat="44.7793" lon="3.89225">
        <ele>1231</ele>
        <time>2017-12-19T23:32:26Z</time>
      </trkpt>
      <trkpt lat="44.77859" lon="3.89176">
        <ele>1225</ele>
        <time>2017-12-19T23:34:26Z</time>
      </trkpt>
      <trkpt lat="44.77798" lon="3.89107">
        <ele>1220</ele>
        <time>2017-12-19T23:36:26Z</time>
      </trkpt>
      <trkpt lat="44.77755" lon="3.89043">
        <ele>1214</ele>
        <time>2017-12-19T23:38:26Z</time>
      </trkpt>
      <trkpt lat="44.77732" lon="3.88991">
        <ele>1209</ele>
        <time>2017-12-19T23:40:26Z</time>
      </trkpt>
      <trkpt lat="44.77707" lon="3.88957">
        <ele>1206</ele>
        <time>2017-12-19T23:42:26Z</time>
      </trkpt>
      <trkpt lat="44.77633" lon="3.88918">
        <ele>1202</ele>
        <time>2017-12-19T23:44:26Z</time>
      </trkpt>
      <trkpt lat="44.776" lon="3.88893">
        <ele>1201</ele>
        <time>2017-12-19T23:46:26Z</time>
      </trkpt>
      <trkpt lat="44.77556" lon="3.88888">
        <ele>1200</ele>
        <time>2017-12-19T23:48:26Z</time>
      </trkpt>
      <trkpt lat="44.77519" lon="3.88856">
        <ele>1197</ele>
        <time>2017-12-19T23:50:26Z</time>
      </trkpt>
      <trkpt lat="44.77489" lon="3.88828">
        <ele>1195</ele>
        <time>2017-12-19T23:52:26Z</time>
      </trkpt>
      <trkpt lat="44.77449" lon="3.88747">
        <ele>1190</ele>
        <time>2017-12-19T23:54:26Z</time>
      </trkpt>
      <trkpt lat="44.77402" lon="3.88678">
        <ele>1190</ele>
        <time>2017-12-19T23:56:26Z</time>
      </trkpt>
      <trkpt lat="44.77364" lon="3.88601">
        <ele>1188</ele>
        <time>2017-12-19T23:58:26Z</time>
      </trkpt>
      <trkpt lat="44.77329" lon="3.88543">
        <ele>1184</ele>
        <time>2017-12-20T00:00:26Z</time>
      </trkpt>
      <trkpt lat="44.77266" lon="3.8847">
        <ele>1179</ele>
        <time>2017-12-20T00:02:26Z</time>
      </trkpt>
      <trkpt lat="44.77225" lon="3.88434">
        <ele>1174</ele>
        <time>2017-12-20T00:04:26Z</time>
      </trkpt>
      <trkpt lat="44.77183" lon="3.88401">
        <ele>1170</ele>
        <time>2017-12-20T00:06:26Z</time>
      </trkpt>
      <trkpt lat="44.77135" lon="3.8838">
        <ele>1167</ele>
        <time>2017-12-20T00:08:26Z</time>
      </trkpt>
      <trkpt lat="44.77065" lon="3.88333">
        <ele>1162</ele>
        <time>2017-12-20T00:10:26Z</time>
      </trkpt>
      <trkpt lat="44.77027" lon="3.88322">
        <ele>1158</ele>
        <time>2017-12-20T00:12:26Z</time>
      </trkpt>
      <trkpt lat="44.77001" lon="3.88352">
        <ele>1159</ele>
        <time>2017-12-20T00:14:26Z</time>
      </trkpt>
      <trkpt lat="44.76983" lon="3.8841">
        <ele>1158</ele>
        <time>2017-12-20T00:16:26Z</time>
      </trkpt>
      <trkpt lat="44.76945" lon="3.88406">
        <ele>1153</ele>
        <time>2017-12-20T00:18:26Z</time>
      </trkpt>
      <trkpt lat="44.76911" lon="3.88397">
        <ele>1149</ele>
        <time>2017-12-20T00:20:26Z</time>
      </trkpt>
      <trkpt lat="44.76881" lon="3.88408">
        <ele>1145</ele>
        <time>2017-12-20T00:22:26Z</time>
      </trkpt>
      <trkpt lat="44.76846" lon="3.88401">
        <ele>1142</ele>
        <time>2017-12-20T00:24:26Z</time>
      </trkpt>
      <trkpt lat="44.76815" lon="3.8841">
        <ele>1137</ele>
        <time>2017-12-20T00:26:26Z</time>
      </trkpt>
      <trkpt lat="44.76785" lon="3.88403">
        <ele>1134</ele>
        <time>2017-12-20T00:28:26Z</time>
      </trkpt>
      <trkpt lat="44.76751" lon="3.88354">
        <ele>1133</ele>
        <time>2017-12-20T00:30:26Z</time>
      </trkpt>
      <trkpt lat="44.76721" lon="3.88337">
        <ele>1130</ele>
        <time>2017-12-20T00:32:26Z</time>
      </trkpt>
      <trkpt lat="44.76686" lon="3.88337">
        <ele>1125</ele>
        <time>2017-12-20T00:34:26Z</time>
      </trkpt>
      <trkpt lat="44.7664" lon="3.88348">
        <ele>1120</ele>
        <time>2017-12-20T00:36:26Z</time>
      </trkpt>
      <trkpt lat="44.76593" lon="3.8838">
        <ele>1116</ele>
        <time>2017-12-20T00:38:26Z</time>
      </trkpt>
      <trkpt lat="44.76555" lon="3.88386">
        <ele>1112</ele>
        <time>2017-12-20T00:40:26Z</time>
      </trkpt>
      <trkpt lat="44.76534" lon="3.88339">
        <ele>1109</ele>
        <time>2017-12-20T00:42:26Z</time>
      </trkpt>
      <trkpt lat="44.7652" lon="3.88285">
        <ele>1108</ele>
        <time>2017-12-20T00:44:26Z</time>
      </trkpt>
      <trkpt lat="44.7648" lon="3.88251">
        <ele>1103</ele>
        <time>2017-12-20T00:46:26Z</time>
      </trkpt>
      <trkpt lat="44.7643" lon="3.88234">
        <ele>1098</ele>
        <time>2017-12-20T00:48:26Z</time>
      </trkpt>
      <trkpt lat="44.76377" lon="3.88208">
        <ele>1095</ele>
        <time>2017-12-20T00:50:26Z</time>
      </trkpt>
      <trkpt lat="44.76314" lon="3.88167">
        <ele>1093</ele>
        <time>2017-12-20T00:52:26Z</time>
      </trkpt>
      <trkpt lat="44.76265" lon="3.88129">
        <ele>1090</ele>
        <time>2017-12-20T00:54:26Z</time>
      </trkpt>
      <trkpt lat="44.76221" lon="3.8811">
        <ele>1084</ele>
        <time>2017-12-20T00:56:26Z</time>
      </trkpt>
      <trkpt lat="44.76169" lon="3.88073">
        <ele>1080</ele>
        <time>2017-12-20T00:58:26Z</time>
      </trkpt>
      <trkpt lat="44.76124" lon="3.88052">
        <ele>1075</ele>
        <time>2017-12-20T01:00:26Z</time>
      </trkpt>
      <trkpt lat="44.7608" lon="3.88041">
        <ele>1070</ele>
        <time>2017-12-20T01:02:26Z</time>
      </trkpt>
      <trkpt lat="44.76048" lon="3.88022">
        <ele>1068</ele>
        <time>2017-12-20T01:04:26Z</time>
      </trkpt>
      <trkpt lat="44.76011" lon="3.88">
        <ele>1066</ele>
        <time>2017-12-20T01:06:26Z</time>
      </trkpt>
      <trkpt lat="44.75961" lon="3.88007">
        <ele>1063</ele>
        <time>2017-12-20T01:08:26Z</time>
      </trkpt>
      <trkpt lat="44.759" lon="3.88052">
        <ele>1060</ele>
        <time>2017-12-20T01:10:26Z</time>
      </trkpt>
      <trkpt lat="44.7584" lon="3.88099">
        <ele>1060</ele>
        <time>2017-12-20T01:12:26Z</time>
      </trkpt>
      <trkpt lat="44.75772" lon="3.88135">
        <ele>1059</ele>
        <time>2017-12-20T01:14:26Z</time>
      </trkpt>
      <trkpt lat="44.75696" lon="3.88176">
        <ele>1055</ele>
        <time>2017-12-20T01:16:26Z</time>
      </trkpt>
      <trkpt lat="44.7563" lon="3.88185">
        <ele>1051</ele>
        <time>2017-12-20T01:18:26Z</time>
      </trkpt>
      <trkpt lat="44.75563" lon="3.88191">
        <ele>1042</ele>
        <time>2017-12-20T01:20:26Z</time>
      </trkpt>
      <trkpt lat="44.75505" lon="3.88187">
        <ele>1031</ele>
        <time>2017-12-20T01:22:26Z</time>
      </trkpt>
      <trkpt lat="44.7547" lon="3.88185">
        <ele>1028</ele>
        <time>2017-12-20T01:24:26Z</time>
      </trkpt>
      <trkpt lat="44.75435" lon="3.8812">
        <ele>1027</ele>
        <time>2017-12-20T01:26:26Z</time>
      </trkpt>
      <trkpt lat="44.75402" lon="3.88073">
        <ele>1026</ele>
        <time>2017-12-20T01:28:26Z</time>
      </trkpt>
      <trkpt lat="44.75391" lon="3.87991">
        <ele>1033</ele>
        <time>2017-12-20T01:30:26Z</time>
      </trkpt>
      <trkpt lat="44.75347" lon="3.87942">
        <ele>1028</ele>
        <time>2017-12-20T01:32:26Z</time>
      </trkpt>
      <trkpt lat="44.75301" lon="3.87891">
        <ele>1025</ele>
        <time>2017-12-20T01:34:26Z</time>
      </trkpt>
      <trkpt lat="44.75264" lon="3.87865">
        <ele>1024</ele>
        <time>2017-12-20T01:36:26Z</time>
      </trkpt>
      <trkpt lat="44.75225" lon="3.87835">
        <ele>1023</ele>
        <time>2017-12-20T01:38:26Z</time>
      </trkpt>
      <trkpt lat="44.75179" lon="3.87764">
        <ele>1023</ele>
        <time>2017-12-20T01:40:26Z</time>
      </trkpt>
      <trkpt lat="44.75141" lon="3.8771">
        <ele>1022</ele>
        <time>2017-12-20T01:42:26Z</time>
      </trkpt>
      <trkpt lat="44.75123" lon="3.87646">
        <ele>1023</ele>
        <time>2017-12-20T01:44:26Z</time>
      </trkpt>
      <trkpt lat="44.75135" lon="3.87543">
        <ele>1023</ele>
        <time>2017-12-20T01:46:26Z</time>
      </trkpt>
      <trkpt lat="44.75135" lon="3.87416">
        <ele>1022</ele>
        <time>2017-12-20T01:48:26Z</time>
      </trkpt>
      <trkpt lat="44.75141" lon="3.87271">
        <ele>1020</ele>
        <time>2017-12-20T01:50:26Z</time>
      </trkpt>
      <trkpt lat="44.75146" lon="3.87183">
        <ele>1019</ele>
        <time>2017-12-20T01:52:26Z</time>
      </trkpt>
      <trkpt lat="44.75167" lon="3.87101">
        <ele>1017</ele>
        <time>2017-12-20T01:54:26Z</time>
      </trkpt>
      <trkpt lat="44.75202" lon="3.8703">
        <ele>1015</ele>
        <time>2017-12-20T01:56:26Z</time>
      </trkpt>
      <trkpt lat="44.75222" lon="3.86966">
        <ele>1012</ele>
        <time>2017-12-20T01:58:26Z</time>
      </trkpt>
      <trkpt lat="44.7524" lon="3.86893">
        <ele>1010</ele>
        <time>2017-12-20T02:00:26Z</time>
      </trkpt>
      <trkpt lat="44.7524" lon="3.86798">
        <ele>1010</ele>
        <time>2017-12-20T02:02:26Z</time>
      </trkpt>
      <trkpt lat="44.75228" lon="3.86747">
        <ele>1009</ele>
        <time>2017-12-20T02:04:26Z</time>
      </trkpt>
      <trkpt lat="44.75277" lon="3.86668">
        <ele>1011</ele>
        <time>2017-12-20T02:06:26Z</time>
      </trkpt>
      <trkpt lat="44.75228" lon="3.86567">
        <ele>1013</ele>
        <time>2017-12-20T02:08:26Z</time>
      </trkpt>
      <trkpt lat="44.75174" lon="3.86487">
        <ele>1017</ele>
        <time>2017-12-20T02:10:26Z</time>
      </trkpt>
      <trkpt lat="44.75127" lon="3.86397">
        <ele>1012</ele>
        <time>2017-12-20T02:12:26Z</time>
      </trkpt>
      <trkpt lat="44.75063" lon="3.86307">
        <ele>1009</ele>
        <time>2017-12-20T02:14:26Z</time>
      </trkpt>
      <trkpt lat="44.74995" lon="3.86247">
        <ele>1009</ele>
        <time>2017-12-20T02:16:26Z</time>
      </trkpt>
      <trkpt lat="44.74932" lon="3.86198">
        <ele>1006</ele>
        <time>2017-12-20T02:18:26Z</time>
      </trkpt>
      <trkpt lat="44.74873" lon="3.8617">
        <ele>1003</ele>
        <time>2017-12-20T02:20:26Z</time>
      </trkpt>
      <trkpt lat="44.74826" lon="3.86155">
        <ele>1000</ele>
        <time>2017-12-20T02:22:26Z</time>
      </trkpt>
      <trkpt lat="44.74777" lon="3.8611">
        <ele>995</ele>
        <time>2017-12-20T02:24:26Z</time>
      </trkpt>
      <trkpt lat="44.74726" lon="3.86065">
        <ele>988</ele>
        <time>2017-12-20T02:26:26Z</time>
      </trkpt>
      <trkpt lat="44.74665" lon="3.86007">
        <ele>980</ele>
        <time>2017-12-20T02:28:26Z</time>
      </trkpt>
      <trkpt lat="44.74615" lon="3.8597">
        <ele>976</ele>
        <time>2017-12-20T02:30:26Z</time>
      </trkpt>
      <trkpt lat="44.74556" lon="3.85944">
        <ele>974</ele>
        <time>2017-12-20T02:32:26Z</time>
      </trkpt>
      <trkpt lat="44.74509" lon="3.85977">
        <ele>971</ele>
        <time>2017-12-20T02:34:26Z</time>
      </trkpt>
      <trkpt lat="44.74457" lon="3.86002">
        <ele>969</ele>
        <time>2017-12-20T02:36:26Z</time>
      </trkpt>
      <trkpt lat="44.744" lon="3.86007">
        <ele>969</ele>
        <time>2017-12-20T02:38:26Z</time>
      </trkpt>
      <trkpt lat="44.74361" lon="3.85985">
        <ele>972</ele>
        <time>2017-12-20T02:40:26Z</time>
      </trkpt>
      <trkpt lat="44.74306" lon="3.85966">
        <ele>971</ele>
        <time>2017-12-20T02:42:26Z</time>
      </trkpt>
      <trkpt lat="44.74254" lon="3.85947">
        <ele>969</ele>
        <time>2017-12-20T02:44:26Z</time>
      </trkpt>
      <trkpt lat="44.74211" lon="3.85906">
        <ele>965</ele>
        <time>2017-12-20T02:46:26Z</time>
      </trkpt>
      <trkpt lat="44.74196" lon="3.85846">
        <ele>962</ele>
        <time>2017-12-20T02:48:26Z</time>
      </trkpt>
      <trkpt lat="44.7419" lon="3.85773">
        <ele>961</ele>
        <time>2017-12-20T02:50:26Z</time>
      </trkpt>
      <trkpt lat="44.74149" lon="3.85717">
        <ele>957</ele>
        <time>2017-12-20T02:52:26Z</time>
      </trkpt>
      <trkpt lat="44.74094" lon="3.85687">
        <ele>949</ele>
        <time>2017-12-20T02:54:26Z</time>
      </trkpt>
      <trkpt lat="44.74044" lon="3.85659">
        <ele>943</ele>
        <time>2017-12-20T02:56:26Z</time>
      </trkpt>
      <trkpt lat="44.73986" lon="3.85655">
        <ele>937</ele>
        <time>2017-12-20T02:58:26Z</time>
      </trkpt>
      <trkpt lat="44.73946" lon="3.85696">
        <ele>931</ele>
        <time>2017-12-20T03:00:26Z</time>
      </trkpt>
      <trkpt lat="44.7391" lon="3.8573">
        <ele>923</ele>
        <time>2017-12-20T03:02:26Z</time>
      </trkpt>
      <trkpt lat="44.73855" lon="3.85721">
        <ele>918</ele>
        <time>2017-12-20T03:04:26Z</time>
      </trkpt>
      <trkpt lat="44.73783" lon="3.85706">
        <ele>911</ele>
        <time>2017-12-20T03:06:26Z</time>
      </trkpt>
      <trkpt lat="44.73727" lon="3.85696">
        <ele>906</ele>
        <time>2017-12-20T03:08:26Z</time>
      </trkpt>
      <trkpt lat="44.7371" lon="3.85768">
        <ele>907</ele>
        <time>2017-12-20T03:10:26Z</time>
      </trkpt>
      <trkpt lat="44.73678" lon="3.85756">
        <ele>906</ele>
        <time>2017-12-20T03:12:26Z</time>
      </trkpt>
      <trkpt lat="44.73629" lon="3.8579">
        <ele>908</ele>
        <time>2017-12-20T03:14:26Z</time>
      </trkpt>
      <trkpt lat="44.7357" lon="3.85835">
        <ele>908</ele>
        <time>2017-12-20T03:16:26Z</time>
      </trkpt>
      <trkpt lat="44.73516" lon="3.85822">
        <ele>904</ele>
        <time>2017-12-20T03:18:26Z</time>
      </trkpt>
      <trkpt lat="44.73471" lon="3.85741">
        <ele>901</ele>
        <time>2017-12-20T03:20:26Z</time>
      </trkpt>
      <trkpt lat="44.73431" lon="3.857">
        <ele>904</ele>
        <time>2017-12-20T03:22:26Z</time>
      </trkpt>
      <trkpt lat="44.73466" lon="3.85668">
        <ele>905</ele>
        <time>2017-12-20T03:24:26Z</time>
      </trkpt>
      <trkpt lat="44.73518" lon="3.85569">
        <ele>903</ele>
        <time>2017-12-20T03:26:26Z</time>
      </trkpt>
      <trkpt lat="44.73545" lon="3.8553">
        <ele>903</ele>
        <time>2017-12-20T03:28:26Z</time>
      </trkpt>
      <trkpt lat="44.73536" lon="3.8549">
        <ele>903</ele>
        <time>2017-12-20T03:30:26Z</time>
      </trkpt>
      <trkpt lat="44.73486" lon="3.85434">
        <ele>908</ele>
        <time>2017-12-20T03:32:26Z</time>
      </trkpt>
      <trkpt lat="44.73442" lon="3.85397">
        <ele>913</ele>
        <time>2017-12-20T03:34:26Z</time>
      </trkpt>
      <trkpt lat="44.73496" lon="3.85361">
        <ele>912</ele>
        <time>2017-12-20T03:36:26Z</time>
      </trkpt>
      <trkpt lat="44.73532" lon="3.8529">
        <ele>915</ele>
        <time>2017-12-20T03:38:26Z</time>
      </trkpt>
      <trkpt lat="44.73576" lon="3.85206">
        <ele>915</ele>
        <time>2017-12-20T03:40:26Z</time>
      </trkpt>
      <trkpt lat="44.73614" lon="3.85118">
        <ele>915</ele>
        <time>2017-12-20T03:42:26Z</time>
      </trkpt>
      <trkpt lat="44.73649" lon="3.85052">
        <ele>911</ele>
        <time>2017-12-20T03:44:26Z</time>
      </trkpt>
      <trkpt lat="44.73666" lon="3.84981">
        <ele>911</ele>
        <time>2017-12-20T03:46:26Z</time>
      </trkpt>
      <trkpt lat="44.73667" lon="3.8491">
        <ele>912</ele>
        <time>2017-12-20T03:48:26Z</time>
      </trkpt>
      <trkpt lat="44.73699" lon="3.84846">
        <ele>913</ele>
        <time>2017-12-20T03:50:26Z</time>
      </trkpt>
      <trkpt lat="44.73711" lon="3.84775">
        <ele>914</ele>
        <time>2017-12-20T03:52:26Z</time>
      </trkpt>
      <trkpt lat="44.73684" lon="3.84708">
        <ele>917</ele>
        <time>2017-12-20T03:54:26Z</time>
      </trkpt>
      <trkpt lat="44.73669" lon="3.84629">
        <ele>919</ele>
        <time>2017-12-20T03:56:26Z</time>
      </trkpt>
      <trkpt lat="44.73704" lon="3.84582">
        <ele>919</ele>
        <time>2017-12-20T03:58:26Z</time>
      </trkpt>
      <trkpt lat="44.73763" lon="3.84563">
        <ele>917</ele>
        <time>2017-12-20T04:00:26Z</time>
      </trkpt>
      <trkpt lat="44.73792" lon="3.84481">
        <ele>920</ele>
        <time>2017-12-20T04:02:26Z</time>
      </trkpt>
      <trkpt lat="44.73818" lon="3.84408">
        <ele>921</ele>
        <time>2017-12-20T04:04:26Z</time>
      </trkpt>
      <trkpt lat="44.7385" lon="3.84324">
        <ele>921</ele>
        <time>2017-12-20T04:06:26Z</time>
      </trkpt>
      <trkpt lat="44.73858" lon="3.84251">
        <ele>922</ele>
        <time>2017-12-20T04:08:26Z</time>
      </trkpt>
      <trkpt lat="44.73871" lon="3.84193">
        <ele>922</ele>
        <time>2017-12-20T04:10:26Z</time>
      </trkpt>
      <trkpt lat="44.73894" lon="3.84148">
        <ele>923</ele>
        <time>2017-12-20T04:12:26Z</time>
      </trkpt>
      <trkpt lat="44.73905" lon="3.84048">
        <ele>927</ele>
        <time>2017-12-20T04:14:26Z</time>
      </trkpt>
      <trkpt lat="44.73922" lon="3.83955">
        <ele>930</ele>
        <time>2017-12-20T04:16:26Z</time>
      </trkpt>
      <trkpt lat="44.73972" lon="3.83872">
        <ele>930</ele>
        <time>2017-12-20T04:18:26Z</time>
      </trkpt>
      <trkpt lat="44.74013" lon="3.83818">
        <ele>928</ele>
        <time>2017-12-20T04:20:26Z</time>
      </trkpt>
      <trkpt lat="44.74041" lon="3.83719">
        <ele>930</ele>
        <time>2017-12-20T04:22:26Z</time>
      </trkpt>
      <trkpt lat="44.74062" lon="3.83636">
        <ele>930</ele>
        <time>2017-12-20T04:24:26Z</time>
      </trkpt>
      <trkpt lat="44.7406" lon="3.8353">
        <ele>934</ele>
        <time>2017-12-20T04:26:26Z</time>
      </trkpt>
      <trkpt lat="44.74013" lon="3.83445">
        <ele>940</ele>
        <time>2017-12-20T04:28:26Z</time>
      </trkpt>
      <trkpt lat="44.73966" lon="3.83391">
        <ele>944</ele>
        <time>2017-12-20T04:30:26Z</time>
      </trkpt>
      <trkpt lat="44.73961" lon="3.83337">
        <ele>946</ele>
        <time>2017-12-20T04:32:26Z</time>
      </trkpt>
      <trkpt lat="44.7394" lon="3.83307">
        <ele>945</ele>
        <time>2017-12-20T04:34:26Z</time>
      </trkpt>
      <trkpt lat="44.73891" lon="3.8337">
        <ele>948</ele>
        <time>2017-12-20T04:36:26Z</time>
      </trkpt>
      <trkpt lat="44.73849" lon="3.83432">
        <ele>952</ele>
        <time>2017-12-20T04:38:26Z</time>
      </trkpt>
      <trkpt lat="44.73829" lon="3.83457">
        <ele>954</ele>
        <time>2017-12-20T04:40:26Z</time>
      </trkpt>
      <trkpt lat="44.73792" lon="3.83473">
        <ele>957</ele>
        <time>2017-12-20T04:42:26Z</time>
      </trkpt>
      <trkpt lat="44.73756" lon="3.83473">
        <ele>958</ele>
        <time>2017-12-20T04:44:26Z</time>
      </trkpt>
      <trkpt lat="44.73704" lon="3.83509">
        <ele>958</ele>
        <time>2017-12-20T04:46:26Z</time>
      </trkpt>
      <trkpt lat="44.73644" lon="3.83505">
        <ele>954</ele>
        <time>2017-12-20T04:48:26Z</time>
      </trkpt>
      <trkpt lat="44.73593" lon="3.83479">
        <ele>950</ele>
        <time>2017-12-20T04:50:26Z</time>
      </trkpt>
      <trkpt lat="44.7351" lon="3.83494">
        <ele>946</ele>
        <time>2017-12-20T04:52:26Z</time>
      </trkpt>
      <trkpt lat="44.73419" lon="3.83535">
        <ele>950</ele>
        <time>2017-12-20T04:54:26Z</time>
      </trkpt>
    </trkseg>
  </trk>
</gpx>